Cogswell, North Dakota
Current Conditions -  °F | °C
As of 10:15 AM on Tuesday 21 Oct 2014 (Local Time) from KGWR Reporting Station
Clear Clear  
Wind Chill: 50°   Ceiling: Unl
Heat Index: 50°   Visibility: 10mi
Dew Point: 39°   Wind: 17mph
Humidity: 66%   Direction: 120°ESE
Pressure: 29.97"   Gusts: NA
Location:  46.11°N, 97.78°W
Report Text: KGWR 211515Z AUTO 12015KT 10SM CLR 10/04 A2997 RMK A01 P000
Loading
Personal Weather Stations






























Interactive Weather Map
Tropical Storm Tracking
New forecast layout! Learn more

10-Day Weather Forecast

Advertisements
Track Severe Weather on mobile